Terminal Aerodrome Forecast
Issued by NWS

Home | Current Version | Previous Version | Text Only | Print | Product List | Glossary On
Versions: 1 2 3 4 5 6 7 8 9 10 11 12 13 14 15
723
FTUS43 KIND 222330
TAFBMG
TAF
KBMG 222330Z 2300/2324 08009KT P6SM BKN100
     FM230900 08007KT P6SM VCSH OVC070
     FM231100 08006KT 6SM -SHRA OVC070
     FM231200 08007KT 6SM SHRA OVC060
     FM231700 09010KT 4SM SHRA OVC008
     FM231900 09009KT P6SM OVC008
      AMD LTD TO CLD VIS AND WIND 2301/2313=

USA.gov is the U.S. government's official web portal to all federal, state and local government web resources and services.